PWSweather.com
Personal Weather Stations
Station Observations
MDHALE1
Southwest Baltimore Co., Halethorpe, MD 21227

Southwest Baltimore Co.Halethorpe, MD 21227

Lat: 39.23643, Lon: -76.696959

Elevation: 86

Station Type: Davis Vantage Pro2+

http://home.comcast.net/~halethorpe_weather/index.html

Latest ConditionsUpdated 5:00:15 AM EDT Wednesday, Jul 30, 2014
Currently Today's Max Today's Min Today's Average
Temperature 55.9°F13.3°C 63.0°F17.2°C 55.9°F13.3°C 59.7°F15.4°C
Dew Point 51.5°F10.8°C 54.6°F12.6°C 51.5°F10.8°C 52.7°F11.5°C
Winds Calm Calm 1.5 mph NW2.4 kmh NW - 0.1 mph 0.2 kmh
Wind Gusts -- 4.6 mph7.4 kmh - -
Humidity 85% 85% 72% 78%
Pressure 29.99 in1015.6 mb 29.99 in1015.6 mb 29.98 in1015.2 mb -
Hour Temp Dew Point Humidity Winds Wind Gusts Pressure Precip Precip Rate Daily Precip Total
05:00 AM 55.9°F13.3°C 51.5°F10.8°C 85% Calm Calm -- 29.99 in1015.6 mb 0.00 in0.0 mm 0.00 in/hr0.0 mm/hr 0.00 in0.0 mm
04:45 AM 56.1°F13.4°C 51.7°F10.9°C 85% Calm Calm -- 29.99 in1015.6 mb 0.00 in0.0 mm 0.00 in/hr0.0 mm/hr 0.00 in0.0 mm
04:30 AM 56.4°F13.6°C 51.6°F10.9°C 84% Calm Calm -- 29.99 in1015.6 mb 0.00 in0.0 mm 0.00 in/hr0.0 mm/hr 0.00 in0.0 mm
04:15 AM 56.6°F13.7°C 51.5°F10.8°C 83% Calm Calm -- 29.99 in1015.6 mb 0.00 in0.0 mm 0.00 in/hr0.0 mm/hr 0.00 in0.0 mm
04:00 AM 56.9°F13.8°C 51.8°F11.0°C 83% Calm Calm -- 29.99 in1015.6 mb 0.00 in0.0 mm 0.00 in/hr0.0 mm/hr 0.00 in0.0 mm
03:45 AM 57.3°F14.1°C 51.8°F11.0°C 82% Calm Calm -- 29.98 in1015.2 mb 0.00 in0.0 mm 0.00 in/hr0.0 mm/hr 0.00 in0.0 mm
03:30 AM 57.7°F14.3°C 52.2°F11.2°C 82% Calm Calm -- 29.98 in1015.2 mb 0.00 in0.0 mm 0.00 in/hr0.0 mm/hr 0.00 in0.0 mm
03:15 AM 58.0°F14.4°C 52.2°F11.2°C 81% Calm Calm -- 29.98 in1015.2 mb 0.00 in0.0 mm 0.00 in/hr0.0 mm/hr 0.00 in0.0 mm
03:00 AM 58.5°F14.7°C 52.4°F11.3°C 80% Calm Calm -- 29.98 in1015.2 mb 0.00 in0.0 mm 0.00 in/hr0.0 mm/hr 0.00 in0.0 mm
02:45 AM 59.0°F15.0°C 52.5°F11.4°C 79% Calm Calm -- 29.98 in1015.2 mb 0.00 in0.0 mm 0.00 in/hr0.0 mm/hr 0.00 in0.0 mm
02:30 AM 59.6°F15.3°C 52.8°F11.6°C 78% Calm Calm -- 29.98 in1015.2 mb 0.00 in0.0 mm 0.00 in/hr0.0 mm/hr 0.00 in0.0 mm
02:15 AM 60.3°F15.7°C 52.7°F11.5°C 76% Calm Calm -- 29.99 in1015.6 mb 0.00 in0.0 mm 0.00 in/hr0.0 mm/hr 0.00 in0.0 mm
02:00 AM 61.0°F16.1°C 52.7°F11.5°C 74% Calm Calm -- 29.99 in1015.6 mb 0.00 in0.0 mm 0.00 in/hr0.0 mm/hr 0.00 in0.0 mm
01:45 AM 61.5°F16.4°C 53.1°F11.7°C 74% Calm Calm -- 29.99 in1015.6 mb 0.00 in0.0 mm 0.00 in/hr0.0 mm/hr 0.00 in0.0 mm
01:30 AM 61.9°F16.6°C 53.2°F11.8°C 73% Calm Calm -- 29.99 in1015.6 mb 0.00 in0.0 mm 0.00 in/hr0.0 mm/hr 0.00 in0.0 mm
01:15 AM 62.3°F16.8°C 53.5°F11.9°C 73% 0.1 mph NW0.2 kmh NW -- 29.99 in1015.6 mb 0.00 in0.0 mm 0.00 in/hr0.0 mm/hr 0.00 in0.0 mm
01:00 AM 62.5°F16.9°C 53.7°F12.1°C 73% 0.5 mph NW0.8 kmh NW 4.6 mph7.4 kmh 29.99 in1015.6 mb 0.00 in0.0 mm 0.00 in/hr0.0 mm/hr 0.00 in0.0 mm
12:45 AM 62.7°F17.1°C 53.6°F12.0°C 72% Calm Calm 1.1 mph1.8 kmh 29.99 in1015.6 mb 0.00 in0.0 mm 0.00 in/hr0.0 mm/hr 0.00 in0.0 mm
12:30 AM 62.9°F17.2°C 53.7°F12.1°C 72% Calm Calm 1.1 mph1.8 kmh 29.99 in1015.6 mb 0.00 in0.0 mm 0.00 in/hr0.0 mm/hr 0.00 in0.0 mm
12:15 AM 63.0°F17.2°C 54.2°F12.3°C 73% 0.9 mph NW1.4 kmh NW -- 29.99 in1015.6 mb 0.00 in0.0 mm 0.00 in/hr0.0 mm/hr 0.00 in0.0 mm
12:01 AM 63.0°F17.2°C 54.6°F12.6°C 74% 1.5 mph NW2.4 kmh NW 3.4 mph5.5 kmh 29.99 in1015.6 mb 0.00 in0.0 mm 0.00 in/hr0.0 mm/hr 0.00 in0.0 mm